Time;durP1;ratioP1;P1;durP2;ratioP2;P2;SDS_P1;SDS_P2;PMS_P1;PMS_P2;Temp;Humidity;BMP_temperature;BMP_pressure;BME280_temperature;BME280_humidity;BME280_pressure;Samples;Min_cycle;Max_cycle;Signal;HPM_P1;HPM_P2
2022/01/09 00:00:29;;;;;;;16.02;10.98;;;5.10;99.90;;;;;;4977304;28;20050;-85
2022/01/09 00:02:56;;;;;;;18.35;11.35;;;5.40;99.90;;;;;;4976216;28;20119;-86
2022/01/09 00:05:22;;;;;;;16.65;9.77;;;4.30;99.90;;;;;;4976680;28;20050;-86
2022/01/09 00:07:48;;;;;;;16.33;9.00;;;4.20;99.90;;;;;;4977838;28;20056;-86
2022/01/09 00:10:15;;;;;;;18.15;11.40;;;4.80;99.90;;;;;;4977988;28;20054;-86
2022/01/09 00:12:41;;;;;;;12.57;8.23;;;4.30;99.90;;;;;;4977881;28;20053;-86
2022/01/09 00:15:08;;;;;;;12.88;8.70;;;4.20;99.90;;;;;;4994924;28;20049;-86
2022/01/09 00:17:34;;;;;;;12.45;6.15;;;3.40;99.90;;;;;;4997610;28;20046;-86
2022/01/09 00:20:00;;;;;;;15.85;9.95;;;4.60;99.90;;;;;;4979578;28;20056;-86
2022/01/09 00:22:39;;;;;;;19.05;11.90;;;4.00;99.90;;;;;;4979140;28;20076;-85
2022/01/09 00:25:06;;;;;;;16.05;9.20;;;4.00;99.90;;;;;;4997076;28;20050;-86
2022/01/09 00:27:32;;;;;;;17.13;10.60;;;4.30;99.90;;;;;;4996717;28;20037;-86
2022/01/09 00:30:00;;;;;;;16.30;9.93;;;4.50;99.90;;;;;;4997148;28;20061;-86
2022/01/09 00:32:34;;;;;;;19.75;12.27;;;4.00;99.90;;;;;;4980501;28;20049;-86
2022/01/09 00:35:01;;;;;;;14.55;9.45;;;4.10;99.90;;;;;;4982029;28;20373;-86
2022/01/09 00:37:28;;;;;;;15.52;11.35;;;4.10;99.90;;;;;;4997523;28;20106;-87
2022/01/09 00:39:54;;;;;;;15.32;10.05;;;4.50;99.90;;;;;;4981005;28;20050;-86
2022/01/09 00:42:20;;;;;;;11.27;7.03;;;4.20;99.90;;;;;;4981498;28;20405;-86
2022/01/09 00:44:46;;;;;;;15.82;10.65;;;4.30;99.90;;;;;;4978458;28;20394;-88
2022/01/09 00:47:12;;;;;;;18.83;11.07;;;4.20;99.90;;;;;;4979699;28;20130;-87
2022/01/09 00:49:38;;;;;;;12.02;8.20;;;3.90;99.90;;;;;;4979210;28;20113;-87
2022/01/09 00:52:04;;;;;;;17.73;11.27;;;3.90;99.90;;;;;;4977676;28;20411;-87
2022/01/09 00:54:30;;;;;;;16.33;11.13;;;4.30;99.90;;;;;;4978607;28;20045;-86
2022/01/09 00:56:56;;;;;;;21.42;12.80;;;4.20;99.90;;;;;;4977290;28;20050;-87
2022/01/09 00:59:23;;;;;;;20.08;12.75;;;4.20;99.90;;;;;;4977864;28;20109;-86
2022/01/09 01:01:49;;;;;;;19.38;12.43;;;5.00;99.90;;;;;;4978297;28;20141;-86
2022/01/09 01:04:14;;;;;;;19.35;12.55;;;3.90;99.90;;;;;;4978758;28;20432;-86
2022/01/09 01:06:40;;;;;;;25.70;13.82;;;4.60;99.90;;;;;;4978405;28;20055;-86
2022/01/09 01:09:06;;;;;;;21.17;13.02;;;4.00;99.90;;;;;;4979071;28;20045;-86
2022/01/09 01:11:32;;;;;;;23.15;14.02;;;4.20;99.90;;;;;;4995040;28;20053;-87
2022/01/09 01:13:58;;;;;;;20.80;13.30;;;3.80;99.90;;;;;;4977355;28;20046;-86
2022/01/09 01:16:24;;;;;;;23.42;14.10;;;3.70;99.90;;;;;;4978211;28;20053;-86
2022/01/09 01:18:50;;;;;;;23.40;14.30;;;3.90;99.90;;;;;;4978827;28;20179;-87
2022/01/09 01:21:15;;;;;;;25.98;14.98;;;4.10;99.90;;;;;;4979875;28;20081;-86
2022/01/09 01:23:41;;;;;;;24.60;14.43;;;4.50;99.90;;;;;;4979598;28;20070;-86
2022/01/09 01:26:07;;;;;;;24.60;14.45;;;4.00;99.90;;;;;;4980002;28;20140;-86
2022/01/09 01:28:33;;;;;;;27.38;16.98;;;3.60;99.90;;;;;;4979504;28;20108;-86
2022/01/09 01:31:00;;;;;;;25.10;15.30;;;4.40;99.90;;;;;;4960518;28;20057;-87
2022/01/09 01:33:25;;;;;;;26.17;16.52;;;4.90;99.90;;;;;;4955366;28;20479;-86
2022/01/09 01:35:51;;;;;;;28.95;16.92;;;4.10;99.90;;;;;;4955056;28;20060;-86
2022/01/09 01:38:17;;;;;;;33.47;18.50;;;4.20;99.90;;;;;;4955214;28;20057;-86
2022/01/09 01:40:43;;;;;;;29.17;17.70;;;4.20;99.90;;;;;;4954924;28;20046;-86
2022/01/09 01:43:09;;;;;;;33.95;18.63;;;3.90;99.90;;;;;;4955233;28;20046;-86
2022/01/09 01:45:35;;;;;;;29.45;17.48;;;4.60;99.90;;;;;;4954662;28;20220;-86
2022/01/09 01:48:06;;;;;;;42.90;19.73;;;3.90;99.90;;;;;;4954618;28;20050;-86
2022/01/09 01:50:36;;;;;;;37.42;18.75;;;3.90;99.90;;;;;;4954322;28;20050;-88
2022/01/09 01:53:10;;;;;;;36.05;19.25;;;4.00;99.90;;;;;;4954536;28;20068;-86
2022/01/09 01:55:38;;;;;;;41.63;20.02;;;4.20;99.90;;;;;;4954733;28;20498;-86
2022/01/09 01:58:05;;;;;;;35.58;19.88;;;5.10;99.90;;;;;;4958631;28;20530;-86
2022/01/09 02:00:32;;;;;;;40.92;20.65;;;4.10;99.90;;;;;;4960458;28;20081;-86
2022/01/09 02:02:58;;;;;;;46.58;21.30;;;5.00;99.90;;;;;;4959039;28;20055;-86
2022/01/09 02:05:25;;;;;;;34.90;18.77;;;4.20;99.90;;;;;;4959025;28;20073;-86
2022/01/09 02:07:51;;;;;;;42.50;21.20;;;3.90;99.90;;;;;;4958406;28;20046;-86
2022/01/09 02:10:18;;;;;;;38.95;20.13;;;4.10;99.90;;;;;;4974244;28;20050;-86
2022/01/09 02:12:44;;;;;;;46.85;22.50;;;4.10;99.90;;;;;;4961636;28;20102;-85
2022/01/09 02:15:34;;;;;;;55.40;23.67;;;4.20;99.90;;;;;;4959324;28;20082;-86
2022/01/09 02:18:06;;;;;;;42.67;20.33;;;4.10;99.90;;;;;;4990389;28;20429;-86
2022/01/09 02:20:32;;;;;;;51.38;24.20;;;3.80;99.90;;;;;;4959791;28;20053;-87
2022/01/09 02:22:58;;;;;;;53.92;24.95;;;4.80;99.90;;;;;;4958126;28;20082;-86
2022/01/09 02:25:24;;;;;;;49.47;22.08;;;4.70;99.90;;;;;;4955049;28;20100;-86
2022/01/09 02:27:51;;;;;;;62.22;24.63;;;4.10;99.90;;;;;;4953988;28;20061;-86
2022/01/09 02:30:17;;;;;;;60.42;26.42;;;4.10;99.90;;;;;;4958175;28;20062;-86
2022/01/09 02:32:43;;;;;;;57.65;24.90;;;4.70;99.90;;;;;;4957498;28;20050;-86
2022/01/09 02:35:09;;;;;;;58.20;25.15;;;3.50;99.90;;;;;;4958295;28;20081;-86
2022/01/09 02:37:35;;;;;;;60.65;25.45;;;4.20;99.90;;;;;;4958267;28;20046;-86
2022/01/09 02:40:01;;;;;;;66.63;27.35;;;4.20;99.90;;;;;;4957721;28;20073;-87
2022/01/09 02:42:29;;;;;;;65.10;26.13;;;4.90;99.90;;;;;;4958577;28;20124;-87
2022/01/09 02:44:56;;;;;;;69.47;26.85;;;4.30;99.90;;;;;;4957571;28;20137;-86
2022/01/09 02:47:22;;;;;;;68.75;26.40;;;3.90;99.90;;;;;;4958912;28;20126;-87
2022/01/09 02:49:51;;;;;;;60.38;25.27;;;4.30;99.90;;;;;;4957484;28;20060;-86
2022/01/09 02:52:29;;;;;;;61.35;24.23;;;4.10;99.90;;;;;;4973401;28;20058;-86
2022/01/09 02:55:14;;;;;;;52.47;21.48;;;4.70;99.90;;;;;;4955683;28;20046;-87
2022/01/09 02:58:06;;;;;;;32.72;15.90;;;4.70;99.90;;;;;;4955982;28;20050;-87
2022/01/09 03:00:36;;;;;;;43.00;17.85;;;4.20;99.90;;;;;;4951988;28;20092;-86
2022/01/09 03:03:02;;;;;;;53.55;20.33;;;4.40;99.90;;;;;;4956374;28;20616;-86
2022/01/09 03:05:29;;;;;;;49.47;18.70;;;4.50;99.90;;;;;;4955822;28;20073;-86
2022/01/09 03:07:55;;;;;;;62.33;20.88;;;5.80;99.90;;;;;;4955280;28;20537;-85
2022/01/09 03:10:23;;;;;;;67.13;21.45;;;5.40;99.90;;;;;;4956983;28;20453;-87
2022/01/09 03:12:51;;;;;;;79.80;23.67;;;4.80;99.90;;;;;;4957502;28;20054;-86
2022/01/09 03:15:18;;;;;;;58.55;20.63;;;5.00;99.90;;;;;;4958392;28;20149;-86
2022/01/09 03:17:45;;;;;;;64.30;19.88;;;4.40;99.90;;;;;;4971874;28;20077;-86
2022/01/09 03:20:16;;;;;;;54.17;19.60;;;4.40;99.90;;;;;;4971087;28;20057;-86
2022/01/09 03:22:42;;;;;;;42.95;17.90;;;4.80;99.90;;;;;;4955550;28;20580;-86
2022/01/09 03:25:08;;;;;;;45.83;17.05;;;4.80;99.90;;;;;;4971943;28;20046;-86
2022/01/09 03:27:35;;;;;;;60.50;19.20;;;4.70;99.90;;;;;;4956145;28;20070;-86
2022/01/09 03:30:02;;;;;;;48.65;17.30;;;4.70;99.90;;;;;;4987751;28;20084;-87
2022/01/09 03:32:28;;;;;;;46.83;18.33;;;4.70;99.90;;;;;;4980467;28;20072;-86
2022/01/09 03:34:54;;;;;;;55.55;17.08;;;4.90;99.90;;;;;;4980498;28;20480;-87
2022/01/09 03:37:20;;;;;;;46.85;16.58;;;5.20;99.90;;;;;;4979066;28;20136;-86
2022/01/09 03:39:45;;;;;;;46.70;16.35;;;4.50;99.90;;;;;;4977865;28;20502;-86
2022/01/09 03:42:14;;;;;;;48.25;15.05;;;5.70;99.90;;;;;;4979688;28;20508;-86
2022/01/09 03:44:40;;;;;;;36.88;10.25;;;3.90;99.90;;;;;;4980347;28;20049;-86
2022/01/09 03:47:06;;;;;;;46.72;11.93;;;4.60;99.90;;;;;;4998092;28;20389;-87
2022/01/09 03:49:31;;;;;;;40.85;12.60;;;4.50;99.90;;;;;;4981521;28;20061;-87
2022/01/09 03:51:59;;;;;;;43.58;10.70;;;5.50;99.90;;;;;;4981890;28;20057;-87
2022/01/09 03:54:24;;;;;;;30.08;9.45;;;4.90;99.90;;;;;;4987104;28;20052;-87
2022/01/09 03:56:50;;;;;;;47.67;9.63;;;6.00;99.90;;;;;;4983299;28;20057;-87
2022/01/09 03:59:17;;;;;;;42.00;8.88;;;4.80;99.90;;;;;;4985008;28;20437;-87
2022/01/09 04:01:44;;;;;;;32.17;7.60;;;5.50;99.90;;;;;;4997421;28;20033;-87
2022/01/09 04:04:10;;;;;;;45.28;7.47;;;5.60;99.90;;;;;;4996916;28;20193;-87
2022/01/09 04:06:39;;;;;;;71.00;10.15;;;5.00;99.90;;;;;;4993747;28;20058;-88
2022/01/09 04:09:17;;;;;;;64.72;9.10;;;5.70;99.90;;;;;;4983701;28;20504;-88
2022/01/09 04:11:43;;;;;;;56.97;8.25;;;5.40;99.90;;;;;;4981985;28;20108;-86
2022/01/09 04:14:09;;;;;;;65.97;10.57;;;5.30;99.90;;;;;;4981462;28;20056;-86
2022/01/09 04:16:35;;;;;;;72.88;10.23;;;5.90;99.90;;;;;;4980187;28;20045;-86
2022/01/09 04:19:00;;;;;;;52.53;9.20;;;5.40;99.90;;;;;;4980009;28;20057;-85
2022/01/09 04:21:26;;;;;;;65.72;11.00;;;6.60;99.90;;;;;;4980048;28;20050;-86
2022/01/09 04:23:52;;;;;;;59.13;9.20;;;5.40;99.90;;;;;;4981860;28;20053;-86
2022/01/09 04:26:20;;;;;;;63.10;9.50;;;5.50;99.90;;;;;;4980694;28;20077;-87
2022/01/09 04:28:46;;;;;;;65.85;10.93;;;5.50;99.90;;;;;;4993942;28;20546;-86
2022/01/09 04:31:12;;;;;;;70.82;9.32;;;5.70;99.90;;;;;;4978097;28;20132;-86
2022/01/09 04:33:37;;;;;;;62.50;9.68;;;6.30;99.90;;;;;;4961575;28;20046;-86
2022/01/09 04:36:03;;;;;;;63.40;8.32;;;6.20;99.90;;;;;;4961921;28;20555;-86
2022/01/09 04:38:29;;;;;;;83.95;11.00;;;5.70;99.90;;;;;;4960862;28;20050;-87
2022/01/09 04:40:55;;;;;;;63.42;9.45;;;6.40;99.90;;;;;;4960429;28;20060;-86
2022/01/09 04:43:20;;;;;;;53.08;8.35;;;6.40;99.90;;;;;;4975912;28;20400;-87
2022/01/09 04:45:46;;;;;;;74.28;10.43;;;5.90;99.90;;;;;;4959122;28;20049;-86
2022/01/09 04:48:14;;;;;;;56.75;9.88;;;6.40;99.90;;;;;;4960714;28;20058;-87
2022/01/09 04:50:42;;;;;;;56.80;7.57;;;6.70;99.90;;;;;;4961899;28;20046;-87
2022/01/09 04:53:09;;;;;;;55.55;7.40;;;6.10;99.90;;;;;;4976067;28;20061;-86
2022/01/09 04:55:38;;;;;;;53.25;7.78;;;5.80;99.90;;;;;;4960460;28;20046;-87
2022/01/09 04:58:05;;;;;;;51.03;8.18;;;6.30;99.90;;;;;;4976375;28;20058;-87
2022/01/09 05:00:30;;;;;;;66.68;9.48;;;5.60;99.90;;;;;;4993253;28;20038;-86
2022/01/09 05:02:56;;;;;;;57.13;7.60;;;5.50;99.90;;;;;;4960362;28;20053;-87
2022/01/09 05:05:23;;;;;;;52.20;6.85;;;6.70;99.90;;;;;;4960921;28;20046;-87
2022/01/09 05:07:49;;;;;;;59.85;7.43;;;6.60;99.90;;;;;;4961493;28;20600;-87
2022/01/09 05:10:15;;;;;;;54.10;8.55;;;5.80;99.90;;;;;;4961377;28;20113;-87
2022/01/09 05:12:41;;;;;;;63.97;8.07;;;5.70;99.90;;;;;;4960558;28;20053;-86
2022/01/09 05:15:10;;;;;;;49.45;7.43;;;5.60;99.90;;;;;;4960423;28;20050;-87
2022/01/09 05:17:36;;;;;;;61.83;8.95;;;5.70;99.90;;;;;;4975880;28;20054;-87
2022/01/09 05:20:03;;;;;;;62.65;9.38;;;6.60;99.90;;;;;;4958953;28;20076;-86
2022/01/09 05:22:28;;;;;;;40.58;6.25;;;5.70;99.90;;;;;;4975466;28;20066;-86
2022/01/09 05:24:58;;;;;;;40.58;6.07;;;6.30;99.90;;;;;;4960525;28;20046;-87
2022/01/09 05:27:24;;;;;;;43.35;6.43;;;5.90;99.90;;;;;;4961570;28;20047;-87
2022/01/09 05:29:49;;;;;;;48.42;7.28;;;6.20;99.90;;;;;;4973534;28;20093;-86
2022/01/09 05:32:15;;;;;;;43.92;5.93;;;5.20;99.90;;;;;;4959800;28;20049;-87
2022/01/09 05:34:41;;;;;;;41.92;6.28;;;5.70;99.90;;;;;;4960436;28;20104;-87
2022/01/09 05:37:07;;;;;;;58.25;6.40;;;5.90;99.90;;;;;;4961559;28;20042;-86
2022/01/09 05:39:33;;;;;;;39.03;7.13;;;5.60;99.90;;;;;;4977512;28;20408;-88
2022/01/09 05:42:01;;;;;;;55.30;5.70;;;5.50;99.90;;;;;;4961920;28;20056;-87
2022/01/09 05:44:27;;;;;;;43.25;7.30;;;6.00;99.90;;;;;;4961956;28;20055;-87
2022/01/09 05:46:56;;;;;;;47.92;6.18;;;5.50;99.90;;;;;;4962374;28;20058;-87
2022/01/09 05:49:22;;;;;;;29.25;5.85;;;5.40;99.90;;;;;;4960735;28;20502;-87
2022/01/09 05:51:47;;;;;;;49.17;5.53;;;5.40;99.90;;;;;;4978320;28;20050;-87
2022/01/09 05:54:13;;;;;;;30.80;5.30;;;5.30;99.90;;;;;;4977988;28;20471;-87
2022/01/09 05:56:39;;;;;;;33.50;6.78;;;5.40;99.90;;;;;;4962410;28;20085;-88
2022/01/09 05:59:05;;;;;;;38.63;6.28;;;5.00;99.90;;;;;;4976459;28;20050;-87
2022/01/09 06:01:30;;;;;;;37.70;5.85;;;6.40;99.90;;;;;;4992688;28;20042;-87
2022/01/09 06:03:56;;;;;;;53.80;7.13;;;5.90;99.90;;;;;;4959730;28;20042;-88
2022/01/09 06:06:22;;;;;;;52.38;7.47;;;5.20;99.90;;;;;;4977688;28;20038;-87
2022/01/09 06:08:47;;;;;;;40.40;7.80;;;5.20;99.90;;;;;;4979734;28;20519;-87
2022/01/09 06:11:13;;;;;;;41.78;5.47;;;4.30;99.90;;;;;;4962469;28;20402;-86
2022/01/09 06:13:39;;;;;;;35.33;7.13;;;4.90;99.90;;;;;;4977361;28;20050;-87
2022/01/09 06:16:05;;;;;;;35.15;5.93;;;5.10;99.90;;;;;;4993311;28;20541;-87
2022/01/09 06:18:31;;;;;;;35.63;5.07;;;5.10;99.90;;;;;;4976827;28;20053;-88
2022/01/09 06:20:56;;;;;;;37.55;5.07;;;5.30;99.90;;;;;;4961331;28;20049;-87
2022/01/09 06:23:23;;;;;;;36.80;4.50;;;4.80;99.90;;;;;;4996699;28;20043;-86
2022/01/09 06:25:50;;;;;;;28.95;4.13;;;4.80;99.90;;;;;;4963241;28;20084;-86
2022/01/09 06:28:16;;;;;;;39.20;5.32;;;5.50;99.90;;;;;;4962719;28;20049;-87
2022/01/09 06:30:42;;;;;;;30.27;5.70;;;5.00;99.90;;;;;;4996504;28;20046;-88
2022/01/09 06:33:09;;;;;;;27.48;4.35;;;5.10;99.90;;;;;;4960300;28;20050;-87
2022/01/09 06:35:35;;;;;;;33.55;5.30;;;5.90;99.90;;;;;;4977117;28;20061;-87
2022/01/09 06:38:01;;;;;;;24.70;4.63;;;4.90;99.90;;;;;;4994297;28;20042;-87
2022/01/09 06:40:26;;;;;;;33.20;4.60;;;4.90;99.90;;;;;;4976580;28;20042;-87
2022/01/09 06:42:52;;;;;;;31.88;4.00;;;4.90;99.90;;;;;;4974442;28;20108;-86
2022/01/09 06:45:18;;;;;;;32.15;3.95;;;4.90;99.90;;;;;;4987112;28;20054;-88
2022/01/09 06:47:43;;;;;;;33.28;6.05;;;4.90;99.90;;;;;;4970144;28;20504;-88
2022/01/09 06:50:10;;;;;;;25.75;3.38;;;5.00;99.90;;;;;;4987069;28;20167;-87
2022/01/09 06:52:37;;;;;;;40.83;5.60;;;5.00;99.90;;;;;;4953331;28;20061;-87
2022/01/09 06:55:03;;;;;;;28.67;5.97;;;5.70;99.90;;;;;;4987718;28;20078;-87
2022/01/09 06:57:29;;;;;;;35.08;4.57;;;5.00;99.90;;;;;;4969724;28;20100;-87
2022/01/09 06:59:54;;;;;;;35.65;6.35;;;4.90;99.90;;;;;;4953669;28;20536;-88
2022/01/09 07:02:20;;;;;;;33.22;6.18;;;4.80;99.90;;;;;;4969861;28;20108;-87
2022/01/09 07:04:46;;;;;;;28.52;4.47;;;4.90;99.90;;;;;;4973117;28;20505;-87
2022/01/09 07:07:11;;;;;;;32.40;5.28;;;4.90;99.90;;;;;;4974715;28;20538;-87
2022/01/09 07:09:38;;;;;;;31.00;6.97;;;4.90;99.90;;;;;;4973465;28;20058;-86
2022/01/09 07:12:04;;;;;;;33.30;6.50;;;4.80;99.90;;;;;;4973592;28;20054;-88
2022/01/09 07:14:30;;;;;;;38.90;4.40;;;4.90;99.90;;;;;;4971971;28;20062;-87
2022/01/09 07:16:56;;;;;;;32.17;4.70;;;4.90;99.90;;;;;;4973044;28;20057;-87
2022/01/09 07:19:23;;;;;;;32.30;4.47;;;4.90;99.90;;;;;;4990053;28;20054;-87
2022/01/09 07:21:49;;;;;;;21.67;3.35;;;4.90;99.90;;;;;;4991427;28;20050;-87
2022/01/09 07:24:14;;;;;;;40.53;6.00;;;4.90;99.90;;;;;;4975393;28;20303;-87
2022/01/09 07:26:40;;;;;;;29.33;4.18;;;4.90;99.90;;;;;;4974720;28;20049;-87
2022/01/09 07:29:05;;;;;;;28.10;3.67;;;4.80;99.90;;;;;;4962375;28;20062;-87
2022/01/09 07:31:34;;;;;;;30.13;4.38;;;4.80;99.90;;;;;;4978358;28;20053;-87
2022/01/09 07:33:59;;;;;;;29.13;4.47;;;4.80;99.90;;;;;;4995036;28;20105;-87
2022/01/09 07:36:25;;;;;;;30.08;3.80;;;4.80;99.90;;;;;;5011238;28;20447;-86
2022/01/09 07:38:52;;;;;;;23.48;3.40;;;4.80;99.90;;;;;;4993589;28;20064;-86
2022/01/09 07:41:17;;;;;;;24.50;4.80;;;4.80;99.90;;;;;;4974929;28;20060;-87
2022/01/09 07:43:43;;;;;;;30.27;4.65;;;4.10;99.90;;;;;;4991989;28;20153;-87
2022/01/09 07:46:10;;;;;;;30.55;5.15;;;4.80;99.90;;;;;;5010943;28;20046;-86
2022/01/09 07:48:35;;;;;;;27.58;4.50;;;4.80;99.90;;;;;;4994332;28;20471;-86
2022/01/09 07:51:01;;;;;;;29.40;4.15;;;4.80;99.90;;;;;;4977947;28;20053;-87
2022/01/09 07:53:26;;;;;;;20.92;4.40;;;4.70;99.90;;;;;;4977827;28;20068;-87
2022/01/09 07:55:53;;;;;;;26.13;5.00;;;4.70;99.90;;;;;;5012402;28;20042;-87
2022/01/09 07:58:22;;;;;;;28.85;4.45;;;4.60;99.90;;;;;;5012174;28;20125;-87
2022/01/09 08:00:47;;;;;;;15.50;3.40;;;4.60;99.90;;;;;;4977122;28;20072;-87
2022/01/09 08:03:14;;;;;;;23.63;3.65;;;4.60;99.90;;;;;;5011069;28;20504;-87
2022/01/09 08:05:40;;;;;;;19.67;3.85;;;5.10;99.90;;;;;;4993696;28;20053;-87
2022/01/09 08:08:06;;;;;;;23.85;3.13;;;4.50;99.90;;;;;;4993578;28;20054;-87
2022/01/09 08:10:32;;;;;;;27.17;4.38;;;4.50;99.90;;;;;;4975607;28;20069;-87
2022/01/09 08:13:00;;;;;;;14.75;4.15;;;4.60;99.90;;;;;;4992318;28;20512;-85
2022/01/09 08:15:27;;;;;;;24.00;3.05;;;4.50;99.90;;;;;;4974722;28;20164;-87
2022/01/09 08:17:54;;;;;;;20.67;3.53;;;4.50;99.90;;;;;;4993484;28;20579;-87
2022/01/09 08:20:20;;;;;;;23.90;3.20;;;4.50;99.90;;;;;;5010954;28;20400;-87
2022/01/09 08:22:46;;;;;;;34.30;5.05;;;5.10;99.90;;;;;;4993450;28;20060;-88
2022/01/09 08:25:13;;;;;;;16.33;3.13;;;5.00;99.90;;;;;;4992861;28;20053;-86
2022/01/09 08:27:40;;;;;;;24.85;3.75;;;4.50;99.90;;;;;;5010579;28;20089;-87
2022/01/09 08:30:07;;;;;;;20.88;2.95;;;4.50;99.90;;;;;;4992042;28;20137;-86
2022/01/09 08:32:33;;;;;;;16.38;3.00;;;4.50;99.90;;;;;;5009948;28;20049;-87
2022/01/09 08:34:59;;;;;;;22.13;3.17;;;4.50;99.90;;;;;;4992839;28;20355;-87
2022/01/09 08:37:25;;;;;;;26.33;3.70;;;5.00;99.90;;;;;;5010432;28;20062;-87
2022/01/09 08:39:51;;;;;;;16.83;2.45;;;4.70;99.90;;;;;;5009772;28;20054;-86
2022/01/09 08:42:17;;;;;;;23.73;3.05;;;4.40;99.90;;;;;;5011716;28;20485;-86
2022/01/09 08:44:43;;;;;;;18.25;3.60;;;4.50;99.90;;;;;;5014836;28;20041;-87
2022/01/09 08:47:10;;;;;;;18.98;2.70;;;4.40;99.90;;;;;;5016055;28;20053;-85
2022/01/09 08:49:35;;;;;;;21.13;3.90;;;4.40;99.90;;;;;;5017714;28;20061;-86
2022/01/09 08:52:02;;;;;;;16.50;2.88;;;4.40;99.90;;;;;;5037350;28;20025;-86
2022/01/09 08:54:30;;;;;;;23.83;2.75;;;4.40;99.90;;;;;;5038250;28;20080;-85
2022/01/09 08:56:55;;;;;;;12.85;3.38;;;4.50;99.90;;;;;;5009919;28;20058;-86
2022/01/09 08:59:21;;;;;;;69.60;4.32;;;4.50;99.90;;;;;;5016843;28;20045;-85
2022/01/09 09:01:47;;;;;;;22.83;3.03;;;4.50;99.90;;;;;;5002104;28;20144;-85
2022/01/09 09:04:14;;;;;;;17.73;2.58;;;4.50;99.90;;;;;;5002531;28;20053;-86
2022/01/09 09:06:40;;;;;;;16.33;3.42;;;4.50;99.90;;;;;;5015108;28;20042;-87
2022/01/09 09:09:07;;;;;;;16.88;2.00;;;4.60;99.90;;;;;;5006625;28;20052;-85
2022/01/09 09:11:32;;;;;;;14.00;2.53;;;4.50;99.90;;;;;;5009248;28;20096;-86
2022/01/09 09:13:58;;;;;;;15.95;2.83;;;4.50;99.90;;;;;;5019916;28;20042;-86
2022/01/09 09:16:24;;;;;;;23.20;2.95;;;4.50;99.90;;;;;;5018217;28;20049;-85
2022/01/09 09:18:50;;;;;;;12.77;3.13;;;4.50;99.90;;;;;;5010326;28;20042;-86
2022/01/09 09:21:17;;;;;;;18.90;2.78;;;4.50;99.90;;;;;;5011117;28;20045;-85
2022/01/09 09:23:43;;;;;;;14.07;2.45;;;4.60;99.90;;;;;;5010945;28;20453;-86
2022/01/09 09:26:09;;;;;;;15.10;2.60;;;4.60;99.90;;;;;;5026112;28;20060;-85
2022/01/09 09:28:36;;;;;;;25.70;3.88;;;4.60;99.90;;;;;;5007005;28;20428;-85
2022/01/09 09:31:03;;;;;;;11.57;2.42;;;4.60;99.90;;;;;;4989147;28;20059;-87
2022/01/09 09:33:29;;;;;;;17.13;3.03;;;4.60;99.90;;;;;;4988689;28;20056;-86
2022/01/09 09:35:57;;;;;;;14.05;2.55;;;4.60;99.90;;;;;;5005207;28;20408;-86
2022/01/09 09:38:23;;;;;;;14.60;2.10;;;4.70;99.90;;;;;;5006778;28;20046;-86
2022/01/09 09:40:49;;;;;;;18.92;2.95;;;4.70;99.90;;;;;;4988893;28;20104;-85
2022/01/09 09:43:16;;;;;;;18.42;2.47;;;4.70;99.90;;;;;;5006711;28;20057;-85
2022/01/09 09:45:41;;;;;;;13.48;3.22;;;4.80;99.90;;;;;;5005750;28;20060;-86
2022/01/09 09:48:07;;;;;;;25.98;3.85;;;4.70;99.90;;;;;;5006034;28;20054;-85
2022/01/09 09:50:32;;;;;;;36.20;4.03;;;5.90;99.90;;;;;;4972640;28;20042;-86
2022/01/09 09:52:59;;;;;;;23.38;3.75;;;4.80;99.90;;;;;;4987260;28;20155;-86
2022/01/09 09:55:25;;;;;;;17.38;2.67;;;4.80;99.90;;;;;;4986981;28;20058;-85
2022/01/09 09:57:51;;;;;;;19.20;2.55;;;5.40;99.90;;;;;;4986291;28;20476;-86
2022/01/09 10:00:19;;;;;;;11.85;2.78;;;4.80;99.90;;;;;;5004796;28;20396;-84
2022/01/09 10:02:56;;;;;;;14.70;2.17;;;4.80;99.90;;;;;;5005023;28;20042;-85
2022/01/09 10:05:27;;;;;;;23.83;3.28;;;4.80;99.90;;;;;;5003104;28;20060;-86
2022/01/09 10:08:03;;;;;;;20.77;3.65;;;4.70;99.90;;;;;;4971027;28;20153;-86
2022/01/09 10:10:31;;;;;;;15.10;2.30;;;4.70;99.90;;;;;;4987531;28;20041;-87
2022/01/09 10:13:07;;;;;;;19.30;3.00;;;4.90;99.90;;;;;;4987704;28;20054;-86
2022/01/09 10:15:55;;;;;;;12.27;3.10;;;4.90;99.90;;;;;;4986286;28;20053;-86
2022/01/09 10:18:39;;;;;;;17.98;3.25;;;4.90;99.90;;;;;;4986426;28;20045;-87
2022/01/09 10:21:06;;;;;;;14.45;2.15;;;5.00;99.90;;;;;;5005485;28;20614;-86
2022/01/09 10:23:32;;;;;;;10.70;2.97;;;5.10;99.90;;;;;;4993487;28;20475;-85
2022/01/09 10:26:10;;;;;;;7.60;1.70;;;5.10;99.90;;;;;;4977399;28;20124;-84
2022/01/09 10:28:38;;;;;;;17.77;2.65;;;5.10;99.90;;;;;;5007817;28;20471;-86
2022/01/09 10:31:14;;;;;;;20.85;2.90;;;5.10;99.90;;;;;;4976154;28;20077;-85
2022/01/09 10:33:40;;;;;;;8.68;2.00;;;5.00;99.90;;;;;;4993035;28;20503;-86
2022/01/09 10:36:05;;;;;;;14.80;2.53;;;4.90;99.90;;;;;;4974812;28;20048;-85
2022/01/09 10:38:31;;;;;;;12.48;2.22;;;5.00;99.90;;;;;;4974072;28;20054;-85
2022/01/09 10:41:03;;;;;;;20.52;3.60;;;5.00;99.90;;;;;;5011472;28;20112;-86
2022/01/09 10:43:41;;;;;;;13.02;2.05;;;5.00;99.90;;;;;;4992054;28;20125;-86
2022/01/09 10:46:09;;;;;;;12.00;1.92;;;5.00;99.90;;;;;;5010951;28;20148;-84
2022/01/09 10:48:40;;;;;;;7.15;1.58;;;5.00;99.90;;;;;;4991298;28;20057;-84
2022/01/09 10:51:10;;;;;;;13.40;2.03;;;5.00;99.90;;;;;;4976846;28;20149;-84
2022/01/09 10:53:38;;;;;;;12.02;2.15;;;4.90;99.90;;;;;;4992195;28;20045;-84
2022/01/09 10:56:08;;;;;;;9.10;2.05;;;5.00;99.90;;;;;;5008995;28;20475;-83
2022/01/09 10:58:37;;;;;;;17.02;2.35;;;5.00;99.90;;;;;;4991592;28;20450;-84
2022/01/09 11:01:23;;;;;;;9.55;2.10;;;5.10;99.90;;;;;;4991763;28;20042;-85
2022/01/09 11:03:53;;;;;;;17.23;2.42;;;5.00;99.90;;;;;;5010177;28;20105;-85
2022/01/09 11:06:20;;;;;;;13.70;2.00;;;5.10;99.90;;;;;;4976411;28;20092;-85
2022/01/09 11:08:47;;;;;;;10.90;1.92;;;5.00;99.90;;;;;;5011326;28;20042;-85
2022/01/09 11:11:26;;;;;;;14.48;2.50;;;5.10;99.90;;;;;;4975196;28;20109;-85
2022/01/09 11:13:54;;;;;;;8.85;1.90;;;5.10;99.90;;;;;;4990969;28;20206;-85
2022/01/09 11:16:33;;;;;;;13.15;2.50;;;5.20;99.90;;;;;;4987254;28;20045;-85
2022/01/09 11:19:11;;;;;;;10.65;1.95;;;5.40;99.90;;;;;;4970702;28;20062;-84
2022/01/09 11:22:01;;;;;;;15.02;2.45;;;4.70;99.90;;;;;;4970651;28;20132;-85
2022/01/09 11:25:02;;;;;;;14.80;2.13;;;5.60;99.90;;;;;;4986109;28;20065;-84
2022/01/09 11:27:50;;;;;;;15.93;3.38;;;5.70;99.90;;;;;;4988873;28;20816;-84
2022/01/09 11:30:31;;;;;;;13.05;1.95;;;5.80;99.90;;;;;;5003270;28;20516;-84
2022/01/09 11:33:13;;;;;;;8.35;1.73;;;5.90;99.90;;;;;;4968385;28;20456;-83
2022/01/09 11:35:48;;;;;;;12.38;2.72;;;5.90;99.90;;;;;;4968855;28;20245;-83
2022/01/09 11:38:37;;;;;;;12.50;3.00;;;5.90;99.90;;;;;;5002683;28;20408;-84
2022/01/09 11:41:24;;;;;;;13.45;3.03;;;6.00;99.90;;;;;;4986443;28;20057;-84
2022/01/09 11:43:57;;;;;;;14.02;3.45;;;6.10;99.90;;;;;;5003359;28;20046;-83
2022/01/09 11:46:25;;;;;;;10.60;2.28;;;6.20;99.90;;;;;;4986195;28;20058;-84
2022/01/09 11:48:53;;;;;;;26.75;3.80;;;6.30;99.90;;;;;;4971052;28;20461;-84
2022/01/09 11:51:30;;;;;;;12.07;2.22;;;6.40;99.90;;;;;;4990148;28;20054;-83
2022/01/09 11:54:26;;;;;;;13.55;2.92;;;6.40;99.90;;;;;;4989992;28;20133;-83
2022/01/09 11:57:01;;;;;;;14.07;3.22;;;6.60;99.90;;;;;;4991347;28;20058;-83
2022/01/09 11:59:29;;;;;;;17.23;2.92;;;6.50;99.90;;;;;;4997876;28;20046;-83
2022/01/09 12:02:15;;;;;;;12.57;3.30;;;6.60;99.90;;;;;;4971130;28;20058;-83
2022/01/09 12:04:40;;;;;;;15.05;2.58;;;6.60;99.90;;;;;;4964832;28;20141;-83
2022/01/09 12:07:12;;;;;;;15.32;3.13;;;6.70;99.90;;;;;;4989909;28;21043;-84
2022/01/09 12:09:43;;;;;;;15.65;2.53;;;6.80;99.90;;;;;;4957983;28;20089;-84
2022/01/09 12:12:13;;;;;;;17.50;2.28;;;6.80;99.90;;;;;;4991396;28;20050;-84
2022/01/09 12:14:41;;;;;;;19.75;3.00;;;6.90;99.90;;;;;;4989709;28;20105;-84
2022/01/09 12:17:27;;;;;;;11.85;2.33;;;7.00;99.90;;;;;;4987016;28;20046;-84
2022/01/09 12:20:12;;;;;;;9.70;2.00;;;7.30;99.90;;;;;;4971338;28;20085;-84
2022/01/09 12:22:45;;;;;;;14.00;2.30;;;7.50;99.90;;;;;;4986332;28;20784;-84
2022/01/09 12:25:39;;;;;;;23.55;3.20;;;7.70;99.90;;;;;;4987538;28;20461;-84
2022/01/09 12:28:23;;;;;;;18.63;2.35;;;7.70;99.90;;;;;;4983347;28;20054;-84
2022/01/09 12:30:58;;;;;;;19.15;2.75;;;7.80;99.90;;;;;;4987550;28;20154;-84
2022/01/09 12:33:31;;;;;;;12.83;2.13;;;7.80;99.90;;;;;;4987041;28;20129;-84
2022/01/09 12:36:11;;;;;;;9.68;1.80;;;7.60;99.90;;;;;;4992765;28;20054;-83
2022/01/09 12:38:42;;;;;;;14.10;2.40;;;7.60;99.90;;;;;;5005045;28;20057;-84
2022/01/09 12:41:16;;;;;;;11.07;2.38;;;7.60;99.90;;;;;;5005143;28;20100;-85
2022/01/09 12:43:42;;;;;;;11.88;2.10;;;7.50;99.90;;;;;;4996605;28;20061;-84
2022/01/09 12:46:22;;;;;;;10.32;2.38;;;7.40;99.90;;;;;;4968281;28;20051;-84
2022/01/09 12:49:09;;;;;;;12.90;2.90;;;7.90;99.90;;;;;;4968436;28;20058;-84
2022/01/09 12:51:35;;;;;;;;;;;7.10;99.90;;;;;;5005163;28;20054;-85